sensor_id;sensor_type;location;lat;lon;timestamp;P1;durP1;ratioP1;P2;durP2;ratioP2
2039;SDS011;1025;42.686;23.350;2024-03-08T00:01:20;2.90;;;2.50;;
2039;SDS011;1025;42.686;23.350;2024-03-08T00:03:48;2.40;;;2.20;;
2039;SDS011;1025;42.686;23.350;2024-03-08T00:06:17;2.10;;;1.90;;
2039;SDS011;1025;42.686;23.350;2024-03-08T00:08:43;2.90;;;2.60;;
2039;SDS011;1025;42.686;23.350;2024-03-08T00:11:10;4.13;;;2.60;;
2039;SDS011;1025;42.686;23.350;2024-03-08T00:13:40;2.37;;;2.17;;
2039;SDS011;1025;42.686;23.350;2024-03-08T00:16:07;1.80;;;1.70;;
2039;SDS011;1025;42.686;23.350;2024-03-08T00:18:34;2.97;;;2.23;;
2039;SDS011;1025;42.686;23.350;2024-03-08T00:21:02;3.63;;;2.73;;
2039;SDS011;1025;42.686;23.350;2024-03-08T00:23:29;2.50;;;2.30;;
2039;SDS011;1025;42.686;23.350;2024-03-08T00:25:57;2.57;;;2.37;;
2039;SDS011;1025;42.686;23.350;2024-03-08T00:28:25;2.30;;;2.10;;
2039;SDS011;1025;42.686;23.350;2024-03-08T00:30:54;2.90;;;1.70;;
2039;SDS011;1025;42.686;23.350;2024-03-08T00:33:20;1.90;;;1.67;;
2039;SDS011;1025;42.686;23.350;2024-03-08T00:35:49;1.77;;;1.23;;
2039;SDS011;1025;42.686;23.350;2024-03-08T00:38:15;3.13;;;1.80;;
2039;SDS011;1025;42.686;23.350;2024-03-08T00:40:43;1.30;;;1.10;;
2039;SDS011;1025;42.686;23.350;2024-03-08T00:43:10;2.77;;;1.67;;
2039;SDS011;1025;42.686;23.350;2024-03-08T00:45:37;2.60;;;1.20;;
2039;SDS011;1025;42.686;23.350;2024-03-08T00:48:05;3.83;;;1.40;;
2039;SDS011;1025;42.686;23.350;2024-03-08T00:50:32;2.17;;;1.73;;
2039;SDS011;1025;42.686;23.350;2024-03-08T00:52:59;2.10;;;1.67;;
2039;SDS011;1025;42.686;23.350;2024-03-08T00:55:27;1.60;;;1.50;;
2039;SDS011;1025;42.686;23.350;2024-03-08T00:57:54;1.70;;;1.60;;
2039;SDS011;1025;42.686;23.350;2024-03-08T01:00:21;1.80;;;1.47;;
2039;SDS011;1025;42.686;23.350;2024-03-08T01:02:49;1.90;;;1.70;;
2039;SDS011;1025;42.686;23.350;2024-03-08T01:05:17;4.10;;;1.80;;
2039;SDS011;1025;42.686;23.350;2024-03-08T01:07:44;1.40;;;1.20;;
2039;SDS011;1025;42.686;23.350;2024-03-08T01:10:14;2.00;;;1.80;;
2039;SDS011;1025;42.686;23.350;2024-03-08T01:12:40;1.80;;;1.70;;
2039;SDS011;1025;42.686;23.350;2024-03-08T01:15:08;2.00;;;1.70;;
2039;SDS011;1025;42.686;23.350;2024-03-08T01:17:37;6.23;;;1.83;;
2039;SDS011;1025;42.686;23.350;2024-03-08T01:20:04;2.80;;;2.20;;
2039;SDS011;1025;42.686;23.350;2024-03-08T01:22:32;1.97;;;1.77;;
2039;SDS011;1025;42.686;23.350;2024-03-08T01:25:01;2.70;;;2.50;;
2039;SDS011;1025;42.686;23.350;2024-03-08T01:27:29;1.87;;;1.77;;
2039;SDS011;1025;42.686;23.350;2024-03-08T01:29:56;5.03;;;2.60;;
2039;SDS011;1025;42.686;23.350;2024-03-08T01:32:25;2.50;;;2.30;;
2039;SDS011;1025;42.686;23.350;2024-03-08T01:34:56;2.67;;;2.43;;
2039;SDS011;1025;42.686;23.350;2024-03-08T01:37:23;2.00;;;1.80;;
2039;SDS011;1025;42.686;23.350;2024-03-08T01:39:50;3.33;;;2.40;;
2039;SDS011;1025;42.686;23.350;2024-03-08T01:42:19;3.43;;;2.40;;
2039;SDS011;1025;42.686;23.350;2024-03-08T01:44:47;2.43;;;2.23;;
2039;SDS011;1025;42.686;23.350;2024-03-08T01:47:13;2.67;;;2.47;;
2039;SDS011;1025;42.686;23.350;2024-03-08T01:49:42;3.10;;;2.27;;
2039;SDS011;1025;42.686;23.350;2024-03-08T01:52:09;2.40;;;2.20;;
2039;SDS011;1025;42.686;23.350;2024-03-08T01:54:36;2.20;;;2.10;;
2039;SDS011;1025;42.686;23.350;2024-03-08T01:57:06;4.00;;;2.57;;
2039;SDS011;1025;42.686;23.350;2024-03-08T01:59:33;2.63;;;2.43;;
2039;SDS011;1025;42.686;23.350;2024-03-08T02:02:00;2.13;;;2.00;;
2039;SDS011;1025;42.686;23.350;2024-03-08T02:04:29;2.57;;;2.37;;
2039;SDS011;1025;42.686;23.350;2024-03-08T02:06:58;3.10;;;2.80;;
2039;SDS011;1025;42.686;23.350;2024-03-08T02:09:25;2.60;;;2.30;;
2039;SDS011;1025;42.686;23.350;2024-03-08T02:11:51;2.77;;;2.57;;
2039;SDS011;1025;42.686;23.350;2024-03-08T02:14:23;2.50;;;2.20;;
2039;SDS011;1025;42.686;23.350;2024-03-08T02:16:49;3.20;;;2.93;;
2039;SDS011;1025;42.686;23.350;2024-03-08T02:19:17;4.37;;;2.67;;
2039;SDS011;1025;42.686;23.350;2024-03-08T02:21:48;2.93;;;2.63;;
2039;SDS011;1025;42.686;23.350;2024-03-08T02:24:15;2.50;;;2.30;;
2039;SDS011;1025;42.686;23.350;2024-03-08T02:26:41;3.07;;;2.33;;
2039;SDS011;1025;42.686;23.350;2024-03-08T02:29:10;2.93;;;2.63;;
2039;SDS011;1025;42.686;23.350;2024-03-08T02:31:37;2.97;;;2.17;;
2039;SDS011;1025;42.686;23.350;2024-03-08T02:34:04;3.00;;;2.57;;
2039;SDS011;1025;42.686;23.350;2024-03-08T02:36:33;3.00;;;2.70;;
2039;SDS011;1025;42.686;23.350;2024-03-08T02:39:02;2.27;;;2.07;;
2039;SDS011;1025;42.686;23.350;2024-03-08T02:41:30;2.47;;;2.30;;
2039;SDS011;1025;42.686;23.350;2024-03-08T02:43:59;2.47;;;2.27;;
2039;SDS011;1025;42.686;23.350;2024-03-08T02:46:26;2.40;;;2.20;;
2039;SDS011;1025;42.686;23.350;2024-03-08T02:48:52;2.03;;;1.67;;
2039;SDS011;1025;42.686;23.350;2024-03-08T02:51:21;1.60;;;1.50;;
2039;SDS011;1025;42.686;23.350;2024-03-08T02:53:47;1.40;;;1.27;;
2039;SDS011;1025;42.686;23.350;2024-03-08T02:56:18;2.60;;;1.87;;
2039;SDS011;1025;42.686;23.350;2024-03-08T02:58:46;1.60;;;1.40;;
2039;SDS011;1025;42.686;23.350;2024-03-08T03:01:13;1.10;;;0.90;;
2039;SDS011;1025;42.686;23.350;2024-03-08T03:03:40;3.47;;;1.83;;
2039;SDS011;1025;42.686;23.350;2024-03-08T03:06:09;1.63;;;1.40;;
2039;SDS011;1025;42.686;23.350;2024-03-08T03:08:37;2.03;;;1.30;;
2039;SDS011;1025;42.686;23.350;2024-03-08T03:11:03;1.27;;;1.17;;
2039;SDS011;1025;42.686;23.350;2024-03-08T03:13:33;1.97;;;1.77;;
2039;SDS011;1025;42.686;23.350;2024-03-08T03:16:00;1.67;;;1.33;;
2039;SDS011;1025;42.686;23.350;2024-03-08T03:18:26;1.47;;;1.20;;
2039;SDS011;1025;42.686;23.350;2024-03-08T03:20:55;2.70;;;1.90;;
2039;SDS011;1025;42.686;23.350;2024-03-08T03:23:21;1.90;;;1.40;;
2039;SDS011;1025;42.686;23.350;2024-03-08T03:25:48;1.70;;;1.47;;
2039;SDS011;1025;42.686;23.350;2024-03-08T03:28:16;1.90;;;1.70;;
2039;SDS011;1025;42.686;23.350;2024-03-08T03:30:48;1.77;;;1.67;;
2039;SDS011;1025;42.686;23.350;2024-03-08T03:33:14;1.43;;;1.33;;
2039;SDS011;1025;42.686;23.350;2024-03-08T03:35:44;1.73;;;1.63;;
2039;SDS011;1025;42.686;23.350;2024-03-08T03:38:13;1.70;;;1.60;;
2039;SDS011;1025;42.686;23.350;2024-03-08T03:40:40;3.20;;;2.03;;
2039;SDS011;1025;42.686;23.350;2024-03-08T03:43:06;2.60;;;1.80;;
2039;SDS011;1025;42.686;23.350;2024-03-08T03:45:38;1.70;;;1.53;;
2039;SDS011;1025;42.686;23.350;2024-03-08T03:48:07;2.40;;;1.63;;
2039;SDS011;1025;42.686;23.350;2024-03-08T03:50:34;3.50;;;1.60;;
2039;SDS011;1025;42.686;23.350;2024-03-08T03:53:03;1.43;;;1.30;;
2039;SDS011;1025;42.686;23.350;2024-03-08T03:55:32;2.07;;;1.50;;
2039;SDS011;1025;42.686;23.350;2024-03-08T03:57:59;1.50;;;1.40;;
2039;SDS011;1025;42.686;23.350;2024-03-08T04:00:26;1.67;;;1.57;;
2039;SDS011;1025;42.686;23.350;2024-03-08T04:02:53;2.00;;;1.77;;
2039;SDS011;1025;42.686;23.350;2024-03-08T04:05:21;4.83;;;2.43;;
2039;SDS011;1025;42.686;23.350;2024-03-08T04:07:50;1.63;;;1.53;;
2039;SDS011;1025;42.686;23.350;2024-03-08T04:10:16;2.50;;;2.30;;
2039;SDS011;1025;42.686;23.350;2024-03-08T04:12:43;2.07;;;1.97;;
2039;SDS011;1025;42.686;23.350;2024-03-08T04:15:09;2.23;;;1.80;;
2039;SDS011;1025;42.686;23.350;2024-03-08T04:17:36;3.03;;;2.10;;
2039;SDS011;1025;42.686;23.350;2024-03-08T04:20:03;3.03;;;1.83;;
2039;SDS011;1025;42.686;23.350;2024-03-08T04:22:36;3.37;;;2.67;;
2039;SDS011;1025;42.686;23.350;2024-03-08T04:25:02;2.80;;;2.17;;
2039;SDS011;1025;42.686;23.350;2024-03-08T04:27:29;2.03;;;1.90;;
2039;SDS011;1025;42.686;23.350;2024-03-08T04:29:57;2.33;;;1.67;;
2039;SDS011;1025;42.686;23.350;2024-03-08T04:32:24;6.20;;;5.70;;
2039;SDS011;1025;42.686;23.350;2024-03-08T04:34:51;2.60;;;2.23;;
2039;SDS011;1025;42.686;23.350;2024-03-08T04:37:17;2.13;;;1.93;;
2039;SDS011;1025;42.686;23.350;2024-03-08T04:39:48;2.60;;;2.40;;
2039;SDS011;1025;42.686;23.350;2024-03-08T04:42:15;3.40;;;3.13;;
2039;SDS011;1025;42.686;23.350;2024-03-08T04:44:43;3.63;;;3.20;;
2039;SDS011;1025;42.686;23.350;2024-03-08T04:47:11;3.50;;;3.20;;
2039;SDS011;1025;42.686;23.350;2024-03-08T04:49:38;3.73;;;2.80;;
2039;SDS011;1025;42.686;23.350;2024-03-08T04:52:05;3.87;;;3.57;;
2039;SDS011;1025;42.686;23.350;2024-03-08T04:54:32;2.80;;;2.50;;
2039;SDS011;1025;42.686;23.350;2024-03-08T04:57:00;3.73;;;2.93;;
2039;SDS011;1025;42.686;23.350;2024-03-08T04:59:27;2.93;;;2.63;;
2039;SDS011;1025;42.686;23.350;2024-03-08T05:01:53;2.90;;;2.70;;
2039;SDS011;1025;42.686;23.350;2024-03-08T05:04:20;2.90;;;2.70;;
2039;SDS011;1025;42.686;23.350;2024-03-08T05:06:47;3.20;;;2.50;;
2039;SDS011;1025;42.686;23.350;2024-03-08T05:09:15;2.97;;;2.37;;
2039;SDS011;1025;42.686;23.350;2024-03-08T05:11:44;3.37;;;3.07;;
2039;SDS011;1025;42.686;23.350;2024-03-08T05:14:12;7.30;;;4.07;;
2039;SDS011;1025;42.686;23.350;2024-03-08T05:16:41;3.23;;;2.93;;
2039;SDS011;1025;42.686;23.350;2024-03-08T05:19:08;4.57;;;2.90;;
2039;SDS011;1025;42.686;23.350;2024-03-08T05:21:34;3.23;;;2.93;;
2039;SDS011;1025;42.686;23.350;2024-03-08T05:24:01;4.67;;;3.90;;
2039;SDS011;1025;42.686;23.350;2024-03-08T05:26:27;3.50;;;3.20;;
2039;SDS011;1025;42.686;23.350;2024-03-08T05:28:55;4.40;;;4.00;;
2039;SDS011;1025;42.686;23.350;2024-03-08T05:31:23;3.33;;;2.23;;
2039;SDS011;1025;42.686;23.350;2024-03-08T05:33:50;3.30;;;3.00;;
2039;SDS011;1025;42.686;23.350;2024-03-08T05:36:18;3.87;;;3.47;;
2039;SDS011;1025;42.686;23.350;2024-03-08T05:38:45;4.00;;;3.07;;
2039;SDS011;1025;42.686;23.350;2024-03-08T05:41:11;5.87;;;4.70;;
2039;SDS011;1025;42.686;23.350;2024-03-08T05:43:40;5.00;;;4.50;;
2039;SDS011;1025;42.686;23.350;2024-03-08T05:46:06;5.80;;;5.27;;
2039;SDS011;1025;42.686;23.350;2024-03-08T05:48:34;4.90;;;4.00;;
2039;SDS011;1025;42.686;23.350;2024-03-08T05:51:01;4.67;;;4.23;;
2039;SDS011;1025;42.686;23.350;2024-03-08T05:53:28;6.80;;;5.40;;
2039;SDS011;1025;42.686;23.350;2024-03-08T05:55:56;6.20;;;5.03;;
2039;SDS011;1025;42.686;23.350;2024-03-08T05:58:23;11.13;;;6.20;;
2039;SDS011;1025;42.686;23.350;2024-03-08T06:00:49;6.70;;;6.00;;
2039;SDS011;1025;42.686;23.350;2024-03-08T06:03:18;8.10;;;6.20;;
2039;SDS011;1025;42.686;23.350;2024-03-08T06:05:48;6.67;;;5.53;;
2039;SDS011;1025;42.686;23.350;2024-03-08T06:08:14;5.50;;;4.27;;
2039;SDS011;1025;42.686;23.350;2024-03-08T06:10:43;5.60;;;5.00;;
2039;SDS011;1025;42.686;23.350;2024-03-08T06:13:13;6.30;;;4.57;;
2039;SDS011;1025;42.686;23.350;2024-03-08T06:15:39;7.80;;;6.47;;
2039;SDS011;1025;42.686;23.350;2024-03-08T06:18:07;11.07;;;6.10;;
2039;SDS011;1025;42.686;23.350;2024-03-08T06:20:38;10.90;;;6.60;;
2039;SDS011;1025;42.686;23.350;2024-03-08T06:23:06;9.55;;;6.55;;
2039;SDS011;1025;42.686;23.350;2024-03-08T06:25:35;16.93;;;7.33;;
2039;SDS011;1025;42.686;23.350;2024-03-08T06:28:04;6.67;;;5.00;;
2039;SDS011;1025;42.686;23.350;2024-03-08T06:30:31;5.47;;;4.70;;
2039;SDS011;1025;42.686;23.350;2024-03-08T06:32:57;6.83;;;5.23;;
2039;SDS011;1025;42.686;23.350;2024-03-08T06:35:32;7.43;;;5.10;;
2039;SDS011;1025;42.686;23.350;2024-03-08T06:37:59;5.50;;;4.87;;
2039;SDS011;1025;42.686;23.350;2024-03-08T06:40:26;9.77;;;8.77;;
2039;SDS011;1025;42.686;23.350;2024-03-08T06:42:53;5.80;;;4.23;;
2039;SDS011;1025;42.686;23.350;2024-03-08T06:45:19;3.83;;;3.50;;
2039;SDS011;1025;42.686;23.350;2024-03-08T06:47:48;9.20;;;4.93;;
2039;SDS011;1025;42.686;23.350;2024-03-08T06:50:16;5.63;;;4.90;;
2039;SDS011;1025;42.686;23.350;2024-03-08T06:52:43;8.13;;;5.17;;
2039;SDS011;1025;42.686;23.350;2024-03-08T06:55:13;9.23;;;5.90;;
2039;SDS011;1025;42.686;23.350;2024-03-08T06:57:41;5.50;;;4.90;;
2039;SDS011;1025;42.686;23.350;2024-03-08T07:00:10;5.23;;;4.73;;
2039;SDS011;1025;42.686;23.350;2024-03-08T07:02:38;4.77;;;4.27;;
2039;SDS011;1025;42.686;23.350;2024-03-08T07:05:07;8.80;;;5.80;;
2039;SDS011;1025;42.686;23.350;2024-03-08T07:07:48;27.47;;;8.13;;
2039;SDS011;1025;42.686;23.350;2024-03-08T07:10:14;21.70;;;9.13;;
2039;SDS011;1025;42.686;23.350;2024-03-08T07:12:43;10.47;;;6.50;;
2039;SDS011;1025;42.686;23.350;2024-03-08T07:15:12;6.50;;;5.50;;
2039;SDS011;1025;42.686;23.350;2024-03-08T07:17:40;11.13;;;6.27;;
2039;SDS011;1025;42.686;23.350;2024-03-08T07:20:09;6.97;;;4.57;;
2039;SDS011;1025;42.686;23.350;2024-03-08T07:22:37;12.67;;;5.90;;
2039;SDS011;1025;42.686;23.350;2024-03-08T07:25:04;24.23;;;12.37;;
2039;SDS011;1025;42.686;23.350;2024-03-08T07:27:48;22.57;;;12.37;;
2039;SDS011;1025;42.686;23.350;2024-03-08T07:30:16;27.33;;;13.17;;
2039;SDS011;1025;42.686;23.350;2024-03-08T07:32:57;7.50;;;4.70;;
2039;SDS011;1025;42.686;23.350;2024-03-08T07:35:25;11.53;;;6.40;;
2039;SDS011;1025;42.686;23.350;2024-03-08T07:37:52;12.73;;;7.10;;
2039;SDS011;1025;42.686;23.350;2024-03-08T07:40:20;8.70;;;6.80;;
2039;SDS011;1025;42.686;23.350;2024-03-08T07:42:50;8.07;;;5.60;;
2039;SDS011;1025;42.686;23.350;2024-03-08T07:45:18;19.57;;;7.10;;
2039;SDS011;1025;42.686;23.350;2024-03-08T07:47:47;32.07;;;8.60;;
2039;SDS011;1025;42.686;23.350;2024-03-08T07:50:13;10.97;;;5.83;;
2039;SDS011;1025;42.686;23.350;2024-03-08T07:52:43;15.10;;;6.37;;
2039;SDS011;1025;42.686;23.350;2024-03-08T07:55:10;15.63;;;7.00;;
2039;SDS011;1025;42.686;23.350;2024-03-08T07:57:37;5.83;;;5.17;;
2039;SDS011;1025;42.686;23.350;2024-03-08T08:00:08;12.30;;;5.70;;
2039;SDS011;1025;42.686;23.350;2024-03-08T08:02:36;15.70;;;6.70;;
2039;SDS011;1025;42.686;23.350;2024-03-08T08:05:02;16.17;;;5.83;;
2039;SDS011;1025;42.686;23.350;2024-03-08T08:07:30;9.57;;;5.13;;
2039;SDS011;1025;42.686;23.350;2024-03-08T08:09:56;17.47;;;5.93;;
2039;SDS011;1025;42.686;23.350;2024-03-08T08:12:23;10.13;;;5.33;;
2039;SDS011;1025;42.686;23.350;2024-03-08T08:14:52;7.63;;;4.97;;
2039;SDS011;1025;42.686;23.350;2024-03-08T08:17:20;7.40;;;4.03;;
2039;SDS011;1025;42.686;23.350;2024-03-08T08:19:47;8.47;;;4.83;;
2039;SDS011;1025;42.686;23.350;2024-03-08T08:22:15;12.63;;;5.30;;
2039;SDS011;1025;42.686;23.350;2024-03-08T08:24:43;11.60;;;4.80;;
2039;SDS011;1025;42.686;23.350;2024-03-08T08:27:09;21.00;;;5.00;;
2039;SDS011;1025;42.686;23.350;2024-03-08T08:29:38;4.50;;;4.00;;
2039;SDS011;1025;42.686;23.350;2024-03-08T08:32:06;15.10;;;6.50;;
2039;SDS011;1025;42.686;23.350;2024-03-08T08:34:34;5.60;;;3.13;;
2039;SDS011;1025;42.686;23.350;2024-03-08T08:37:01;24.17;;;7.23;;
2039;SDS011;1025;42.686;23.350;2024-03-08T08:39:27;17.90;;;6.63;;
2039;SDS011;1025;42.686;23.350;2024-03-08T08:41:54;14.83;;;6.43;;
2039;SDS011;1025;42.686;23.350;2024-03-08T08:44:21;8.13;;;4.17;;
2039;SDS011;1025;42.686;23.350;2024-03-08T08:46:50;4.07;;;3.53;;
2039;SDS011;1025;42.686;23.350;2024-03-08T08:49:17;9.67;;;4.60;;
2039;SDS011;1025;42.686;23.350;2024-03-08T08:51:49;6.87;;;4.07;;
2039;SDS011;1025;42.686;23.350;2024-03-08T08:54:18;6.97;;;4.33;;
2039;SDS011;1025;42.686;23.350;2024-03-08T08:56:45;4.00;;;3.67;;
2039;SDS011;1025;42.686;23.350;2024-03-08T08:59:12;8.07;;;4.17;;
2039;SDS011;1025;42.686;23.350;2024-03-08T09:01:41;5.93;;;3.60;;
2039;SDS011;1025;42.686;23.350;2024-03-08T09:04:07;8.43;;;3.63;;
2039;SDS011;1025;42.686;23.350;2024-03-08T09:06:36;4.63;;;3.47;;
2039;SDS011;1025;42.686;23.350;2024-03-08T09:09:06;11.73;;;6.00;;
2039;SDS011;1025;42.686;23.350;2024-03-08T09:11:36;5.40;;;3.30;;
2039;SDS011;1025;42.686;23.350;2024-03-08T09:14:06;8.80;;;5.60;;
2039;SDS011;1025;42.686;23.350;2024-03-08T09:16:34;13.50;;;4.50;;
2039;SDS011;1025;42.686;23.350;2024-03-08T09:19:01;7.20;;;4.33;;
2039;SDS011;1025;42.686;23.350;2024-03-08T09:21:30;10.40;;;4.03;;
2039;SDS011;1025;42.686;23.350;2024-03-08T09:23:57;11.90;;;4.17;;
2039;SDS011;1025;42.686;23.350;2024-03-08T09:26:25;10.43;;;4.20;;
2039;SDS011;1025;42.686;23.350;2024-03-08T09:28:53;2.70;;;2.50;;
2039;SDS011;1025;42.686;23.350;2024-03-08T09:31:21;4.87;;;3.23;;
2039;SDS011;1025;42.686;23.350;2024-03-08T09:33:47;6.60;;;4.50;;
2039;SDS011;1025;42.686;23.350;2024-03-08T09:36:16;10.80;;;3.80;;
2039;SDS011;1025;42.686;23.350;2024-03-08T09:38:45;3.40;;;2.60;;
2039;SDS011;1025;42.686;23.350;2024-03-08T09:41:12;11.80;;;3.97;;
2039;SDS011;1025;42.686;23.350;2024-03-08T09:43:42;4.40;;;3.10;;
2039;SDS011;1025;42.686;23.350;2024-03-08T09:46:09;3.27;;;2.97;;
2039;SDS011;1025;42.686;23.350;2024-03-08T09:48:36;6.53;;;3.33;;
2039;SDS011;1025;42.686;23.350;2024-03-08T09:51:07;11.60;;;3.30;;
2039;SDS011;1025;42.686;23.350;2024-03-08T09:53:38;5.90;;;3.37;;
2039;SDS011;1025;42.686;23.350;2024-03-08T09:56:06;5.30;;;3.70;;
2039;SDS011;1025;42.686;23.350;2024-03-08T09:58:34;10.20;;;4.20;;
2039;SDS011;1025;42.686;23.350;2024-03-08T10:01:23;9.80;;;3.40;;
2039;SDS011;1025;42.686;23.350;2024-03-08T10:03:53;3.10;;;2.10;;
2039;SDS011;1025;42.686;23.350;2024-03-08T10:06:22;4.87;;;4.37;;
2039;SDS011;1025;42.686;23.350;2024-03-08T10:08:49;9.03;;;3.20;;
2039;SDS011;1025;42.686;23.350;2024-03-08T10:11:19;8.27;;;4.13;;
2039;SDS011;1025;42.686;23.350;2024-03-08T10:13:45;11.63;;;4.10;;
2039;SDS011;1025;42.686;23.350;2024-03-08T10:16:14;6.70;;;4.03;;
2039;SDS011;1025;42.686;23.350;2024-03-08T10:18:45;9.77;;;3.07;;
2039;SDS011;1025;42.686;23.350;2024-03-08T10:21:14;7.50;;;3.40;;
2039;SDS011;1025;42.686;23.350;2024-03-08T10:23:42;6.13;;;3.70;;
2039;SDS011;1025;42.686;23.350;2024-03-08T10:26:14;14.80;;;4.40;;
2039;SDS011;1025;42.686;23.350;2024-03-08T10:28:43;6.97;;;4.27;;
2039;SDS011;1025;42.686;23.350;2024-03-08T10:31:10;7.43;;;3.00;;
2039;SDS011;1025;42.686;23.350;2024-03-08T10:33:37;8.27;;;5.27;;
2039;SDS011;1025;42.686;23.350;2024-03-08T10:36:08;2.93;;;2.30;;
2039;SDS011;1025;42.686;23.350;2024-03-08T10:38:36;11.17;;;5.13;;
2039;SDS011;1025;42.686;23.350;2024-03-08T10:41:04;14.57;;;4.03;;
2039;SDS011;1025;42.686;23.350;2024-03-08T10:43:36;4.37;;;3.57;;
2039;SDS011;1025;42.686;23.350;2024-03-08T10:46:09;4.33;;;2.67;;
2039;SDS011;1025;42.686;23.350;2024-03-08T10:48:43;3.73;;;3.00;;
2039;SDS011;1025;42.686;23.350;2024-03-08T10:51:11;6.07;;;4.47;;
2039;SDS011;1025;42.686;23.350;2024-03-08T10:53:37;3.03;;;2.53;;
2039;SDS011;1025;42.686;23.350;2024-03-08T10:56:08;4.90;;;4.30;;
2039;SDS011;1025;42.686;23.350;2024-03-08T10:58:35;6.20;;;3.10;;
2039;SDS011;1025;42.686;23.350;2024-03-08T11:01:03;2.37;;;2.17;;
2039;SDS011;1025;42.686;23.350;2024-03-08T11:03:46;3.80;;;2.73;;
2039;SDS011;1025;42.686;23.350;2024-03-08T11:06:18;6.43;;;3.63;;
2039;SDS011;1025;42.686;23.350;2024-03-08T11:08:50;6.97;;;3.17;;
2039;SDS011;1025;42.686;23.350;2024-03-08T11:11:23;5.00;;;2.73;;
2039;SDS011;1025;42.686;23.350;2024-03-08T11:13:54;2.70;;;2.27;;
2039;SDS011;1025;42.686;23.350;2024-03-08T11:19:05;6.07;;;3.00;;
2039;SDS011;1025;42.686;23.350;2024-03-08T11:21:37;5.67;;;2.87;;
2039;SDS011;1025;42.686;23.350;2024-03-08T11:24:06;2.27;;;2.07;;
2039;SDS011;1025;42.686;23.350;2024-03-08T11:26:39;5.43;;;3.40;;
2039;SDS011;1025;42.686;23.350;2024-03-08T11:31:47;3.33;;;2.30;;
2039;SDS011;1025;42.686;23.350;2024-03-08T11:34:15;5.57;;;2.83;;
2039;SDS011;1025;42.686;23.350;2024-03-08T11:36:47;31.70;;;5.90;;
2039;SDS011;1025;42.686;23.350;2024-03-08T11:39:16;7.10;;;2.77;;
2039;SDS011;1025;42.686;23.350;2024-03-08T11:41:44;6.80;;;3.70;;
2039;SDS011;1025;42.686;23.350;2024-03-08T11:44:11;10.83;;;3.97;;
2039;SDS011;1025;42.686;23.350;2024-03-08T11:46:43;1.90;;;1.73;;
2039;SDS011;1025;42.686;23.350;2024-03-08T11:49:12;7.23;;;1.80;;
2039;SDS011;1025;42.686;23.350;2024-03-08T11:51:39;7.97;;;2.63;;
2039;SDS011;1025;42.686;23.350;2024-03-08T11:54:10;8.63;;;3.87;;
2039;SDS011;1025;42.686;23.350;2024-03-08T11:56:40;2.63;;;2.43;;
2039;SDS011;1025;42.686;23.350;2024-03-08T11:59:10;2.43;;;1.60;;
2039;SDS011;1025;42.686;23.350;2024-03-08T12:01:37;9.60;;;3.60;;
2039;SDS011;1025;42.686;23.350;2024-03-08T12:04:04;12.33;;;3.27;;
2039;SDS011;1025;42.686;23.350;2024-03-08T12:06:36;4.47;;;2.73;;
2039;SDS011;1025;42.686;23.350;2024-03-08T12:09:04;14.07;;;4.00;;
2039;SDS011;1025;42.686;23.350;2024-03-08T12:11:32;5.80;;;1.97;;
2039;SDS011;1025;42.686;23.350;2024-03-08T12:14:01;4.57;;;2.13;;
2039;SDS011;1025;42.686;23.350;2024-03-08T12:16:28;4.73;;;1.80;;
2039;SDS011;1025;42.686;23.350;2024-03-08T12:18:54;2.80;;;2.10;;
2039;SDS011;1025;42.686;23.350;2024-03-08T12:21:25;2.73;;;2.40;;
2039;SDS011;1025;42.686;23.350;2024-03-08T12:24:04;4.17;;;2.70;;
2039;SDS011;1025;42.686;23.350;2024-03-08T12:26:37;2.83;;;2.47;;
2039;SDS011;1025;42.686;23.350;2024-03-08T12:29:16;2.90;;;2.60;;
2039;SDS011;1025;42.686;23.350;2024-03-08T12:31:47;10.37;;;3.57;;
2039;SDS011;1025;42.686;23.350;2024-03-08T12:34:17;1.87;;;1.77;;
2039;SDS011;1025;42.686;23.350;2024-03-08T12:36:54;17.63;;;3.00;;
2039;SDS011;1025;42.686;23.350;2024-03-08T12:39:21;6.83;;;2.80;;
2039;SDS011;1025;42.686;23.350;2024-03-08T12:41:53;7.20;;;4.47;;
2039;SDS011;1025;42.686;23.350;2024-03-08T12:44:22;4.23;;;2.70;;
2039;SDS011;1025;42.686;23.350;2024-03-08T12:46:48;4.93;;;2.63;;
2039;SDS011;1025;42.686;23.350;2024-03-08T12:49:16;2.67;;;2.47;;
2039;SDS011;1025;42.686;23.350;2024-03-08T12:51:43;3.27;;;2.77;;
2039;SDS011;1025;42.686;23.350;2024-03-08T12:54:10;5.90;;;3.00;;
2039;SDS011;1025;42.686;23.350;2024-03-08T12:56:37;13.53;;;3.40;;
2039;SDS011;1025;42.686;23.350;2024-03-08T12:59:05;3.40;;;2.33;;
2039;SDS011;1025;42.686;23.350;2024-03-08T13:01:32;4.03;;;2.40;;
2039;SDS011;1025;42.686;23.350;2024-03-08T13:03:59;2.87;;;1.80;;
2039;SDS011;1025;42.686;23.350;2024-03-08T13:06:29;3.67;;;2.60;;
2039;SDS011;1025;42.686;23.350;2024-03-08T13:08:56;8.43;;;2.90;;
2039;SDS011;1025;42.686;23.350;2024-03-08T13:11:23;3.00;;;1.80;;
2039;SDS011;1025;42.686;23.350;2024-03-08T13:13:50;3.67;;;2.57;;
2039;SDS011;1025;42.686;23.350;2024-03-08T13:16:19;6.10;;;3.20;;
2039;SDS011;1025;42.686;23.350;2024-03-08T13:18:46;7.57;;;6.93;;
2039;SDS011;1025;42.686;23.350;2024-03-08T13:21:15;4.60;;;3.50;;
2039;SDS011;1025;42.686;23.350;2024-03-08T13:23:45;3.87;;;2.30;;
2039;SDS011;1025;42.686;23.350;2024-03-08T13:26:16;5.87;;;3.90;;
2039;SDS011;1025;42.686;23.350;2024-03-08T13:28:43;14.37;;;4.30;;
2039;SDS011;1025;42.686;23.350;2024-03-08T13:31:10;2.53;;;2.10;;
2039;SDS011;1025;42.686;23.350;2024-03-08T13:33:44;3.30;;;2.17;;
2039;SDS011;1025;42.686;23.350;2024-03-08T13:36:12;4.27;;;2.93;;
2039;SDS011;1025;42.686;23.350;2024-03-08T13:38:41;3.40;;;2.27;;
2039;SDS011;1025;42.686;23.350;2024-03-08T13:41:11;12.00;;;3.97;;
2039;SDS011;1025;42.686;23.350;2024-03-08T13:43:39;5.50;;;2.97;;
2039;SDS011;1025;42.686;23.350;2024-03-08T13:46:06;7.47;;;4.27;;
2039;SDS011;1025;42.686;23.350;2024-03-08T13:48:35;4.77;;;3.60;;
2039;SDS011;1025;42.686;23.350;2024-03-08T13:51:04;2.03;;;1.93;;
2039;SDS011;1025;42.686;23.350;2024-03-08T13:53:31;6.70;;;3.43;;
2039;SDS011;1025;42.686;23.350;2024-03-08T13:56:02;3.43;;;2.73;;
2039;SDS011;1025;42.686;23.350;2024-03-08T13:58:28;3.07;;;2.20;;
2039;SDS011;1025;42.686;23.350;2024-03-08T14:00:55;2.00;;;1.90;;
2039;SDS011;1025;42.686;23.350;2024-03-08T14:03:23;5.47;;;2.40;;
2039;SDS011;1025;42.686;23.350;2024-03-08T14:05:50;5.77;;;2.67;;
2039;SDS011;1025;42.686;23.350;2024-03-08T14:08:18;3.00;;;2.27;;
2039;SDS011;1025;42.686;23.350;2024-03-08T14:10:44;5.10;;;2.50;;
2039;SDS011;1025;42.686;23.350;2024-03-08T14:13:12;3.90;;;2.93;;
2039;SDS011;1025;42.686;23.350;2024-03-08T14:15:41;2.90;;;2.10;;
2039;SDS011;1025;42.686;23.350;2024-03-08T14:18:07;2.67;;;2.47;;
2039;SDS011;1025;42.686;23.350;2024-03-08T14:20:36;2.67;;;2.40;;
2039;SDS011;1025;42.686;23.350;2024-03-08T14:23:03;3.80;;;3.10;;
2039;SDS011;1025;42.686;23.350;2024-03-08T14:25:33;2.93;;;2.73;;
2039;SDS011;1025;42.686;23.350;2024-03-08T14:28:01;4.03;;;3.00;;
2039;SDS011;1025;42.686;23.350;2024-03-08T14:30:32;7.43;;;3.00;;
2039;SDS011;1025;42.686;23.350;2024-03-08T14:33:00;2.87;;;2.53;;
2039;SDS011;1025;42.686;23.350;2024-03-08T14:35:26;3.93;;;2.77;;
2039;SDS011;1025;42.686;23.350;2024-03-08T14:37:54;3.23;;;3.03;;
2039;SDS011;1025;42.686;23.350;2024-03-08T14:40:22;5.10;;;4.60;;
2039;SDS011;1025;42.686;23.350;2024-03-08T14:42:51;4.70;;;2.90;;
2039;SDS011;1025;42.686;23.350;2024-03-08T14:45:17;3.33;;;3.13;;
2039;SDS011;1025;42.686;23.350;2024-03-08T14:47:45;8.73;;;3.30;;
2039;SDS011;1025;42.686;23.350;2024-03-08T14:50:16;6.83;;;3.83;;
2039;SDS011;1025;42.686;23.350;2024-03-08T14:52:43;2.97;;;2.23;;
2039;SDS011;1025;42.686;23.350;2024-03-08T14:55:09;5.80;;;3.60;;
2039;SDS011;1025;42.686;23.350;2024-03-08T14:57:41;3.00;;;2.80;;
2039;SDS011;1025;42.686;23.350;2024-03-08T15:00:12;4.40;;;3.30;;
2039;SDS011;1025;42.686;23.350;2024-03-08T15:02:45;12.47;;;4.03;;
2039;SDS011;1025;42.686;23.350;2024-03-08T15:05:13;5.13;;;3.90;;
2039;SDS011;1025;42.686;23.350;2024-03-08T15:07:41;3.53;;;3.23;;
2039;SDS011;1025;42.686;23.350;2024-03-08T15:10:10;5.10;;;2.97;;
2039;SDS011;1025;42.686;23.350;2024-03-08T15:12:39;5.10;;;4.10;;